createdAt,value
2018-12-26T00:00:35.534Z,11.62
2018-12-26T00:03:01.911Z,11.59
2018-12-26T00:05:27.993Z,11.69
2018-12-26T00:07:54.503Z,11.94
2018-12-26T00:10:20.518Z,11.95
2018-12-26T00:12:46.610Z,11.81
2018-12-26T00:15:12.986Z,11.79
2018-12-26T00:17:39.257Z,11.79
2018-12-26T00:20:05.350Z,11.74
2018-12-26T00:22:31.501Z,11.57
2018-12-26T00:24:57.840Z,11.62
2018-12-26T00:27:24.180Z,11.69
2018-12-26T00:29:50.210Z,11.78
2018-12-26T00:32:16.302Z,11.52
2018-12-26T00:34:42.647Z,11.56
2018-12-26T00:37:09.000Z,11.56
2018-12-26T00:39:35.374Z,11.57
2018-12-26T00:42:01.393Z,11.64
2018-12-26T00:44:27.418Z,11.58
2018-12-26T00:46:53.440Z,11.65
2018-12-26T00:49:19.806Z,11.65
2018-12-26T00:51:45.836Z,11.74
2018-12-26T00:54:12.202Z,11.60
2018-12-26T00:56:38.236Z,11.68
2018-12-26T00:59:04.342Z,11.63
2018-12-26T01:01:30.814Z,11.60
2018-12-26T01:03:57.149Z,11.65
2018-12-26T01:06:23.249Z,11.64
2018-12-26T01:08:49.584Z,11.65
2018-12-26T01:11:15.626Z,11.62
2018-12-26T01:13:41.995Z,11.77
2018-12-26T01:16:08.298Z,11.62
2018-12-26T01:18:34.389Z,11.65
2018-12-26T01:21:00.850Z,11.69
2018-12-26T01:23:26.880Z,11.54
2018-12-26T01:25:53.221Z,11.60
2018-12-26T01:28:19.245Z,11.71
2018-12-26T01:30:45.378Z,11.56
2018-12-26T01:33:11.719Z,11.48
2018-12-26T01:35:37.806Z,11.54
2018-12-26T01:38:03.815Z,11.70
2018-12-26T01:40:29.935Z,11.79
2018-12-26T01:42:56.322Z,11.76
2018-12-26T01:45:22.371Z,11.70
2018-12-26T01:47:48.449Z,11.77
2018-12-26T01:50:14.741Z,11.61
2018-12-26T01:52:40.789Z,11.70
2018-12-26T01:55:07.171Z,11.72
2018-12-26T01:57:33.180Z,11.61
2018-12-26T01:59:59.297Z,11.65
2018-12-26T02:02:25.380Z,11.88
2018-12-26T02:04:51.478Z,11.62
2018-12-26T02:07:17.577Z,11.66
2018-12-26T02:09:43.614Z,11.66
2018-12-26T02:12:09.690Z,11.53
2018-12-26T02:14:35.955Z,11.62
2018-12-26T02:17:01.991Z,11.56
2018-12-26T02:19:28.078Z,11.57
2018-12-26T02:21:54.370Z,11.60
2018-12-26T02:24:20.698Z,11.64
2018-12-26T02:26:46.728Z,11.74
2018-12-26T02:29:12.750Z,11.70
2018-12-26T02:31:38.768Z,11.92
2018-12-26T02:34:05.050Z,11.80
2018-12-26T02:36:31.459Z,11.72
2018-12-26T02:38:57.535Z,11.74
2018-12-26T02:41:23.647Z,11.71
2018-12-26T02:43:49.994Z,11.58
2018-12-26T02:46:16.042Z,11.77
2018-12-26T02:48:42.150Z,11.85
2018-12-26T02:51:08.262Z,11.83
2018-12-26T02:53:34.347Z,11.72
2018-12-26T02:56:00.382Z,11.73
2018-12-26T02:58:26.479Z,11.61
2018-12-26T03:00:52.574Z,11.69
2018-12-26T03:03:18.599Z,11.67
2018-12-26T03:05:44.689Z,11.75
2018-12-26T03:08:10.699Z,11.62
2018-12-26T03:10:36.726Z,11.60
2018-12-26T03:13:02.817Z,11.74
2018-12-26T03:15:28.818Z,11.79
2018-12-26T03:17:54.837Z,11.87
2018-12-26T03:20:20.922Z,11.76
2018-12-26T03:22:47.215Z,11.66
2018-12-26T03:25:13.301Z,11.72
2018-12-26T03:27:39.749Z,11.68
2018-12-26T03:30:05.753Z,11.72
2018-12-26T03:32:31.850Z,11.69
2018-12-26T03:34:57.967Z,11.63
2018-12-26T03:37:24.090Z,11.70
2018-12-26T03:39:50.234Z,11.58
2018-12-26T03:42:16.294Z,12.00
2018-12-26T03:44:42.327Z,11.82
2018-12-26T03:47:08.489Z,11.78
2018-12-26T03:49:34.607Z,11.71
2018-12-26T03:52:02.205Z,11.72
2018-12-26T03:54:28.478Z,11.63
2018-12-26T03:56:54.573Z,11.56
2018-12-26T03:59:20.609Z,11.55
2018-12-26T04:01:46.643Z,11.86
2018-12-26T04:04:12.973Z,12.16
2018-12-26T04:06:39.091Z,11.85
2018-12-26T04:09:05.117Z,11.66
2018-12-26T04:11:31.203Z,11.76
2018-12-26T04:13:57.227Z,11.73
2018-12-26T04:16:23.329Z,12.02
2018-12-26T04:18:49.679Z,12.01
2018-12-26T04:21:15.771Z,12.06
2018-12-26T04:23:41.833Z,11.94
2018-12-26T04:26:07.931Z,11.85
2018-12-26T04:28:34.305Z,11.61
2018-12-26T04:31:00.373Z,11.71
2018-12-26T04:33:26.743Z,11.65
2018-12-26T04:35:53.078Z,11.75
2018-12-26T04:38:19.388Z,11.23
2018-12-26T04:40:45.491Z,11.36
2018-12-26T04:43:11.590Z,11.47
2018-12-26T04:45:37.966Z,11.61
2018-12-26T04:48:04.081Z,11.72
2018-12-26T04:50:30.177Z,11.73
2018-12-26T04:52:56.333Z,11.83
2018-12-26T04:55:22.419Z,11.95
2018-12-26T04:57:48.517Z,11.68
2018-12-26T05:00:14.538Z,11.66
2018-12-26T05:02:40.937Z,11.93
2018-12-26T05:05:07.299Z,11.74
2018-12-26T05:07:33.666Z,11.58
2018-12-26T05:09:59.689Z,11.64
2018-12-26T05:12:25.786Z,11.54
2018-12-26T05:14:52.154Z,11.48
2018-12-26T05:17:20.490Z,11.24
2018-12-26T05:19:46.570Z,11.43
2018-12-26T05:22:13.321Z,11.59
2018-12-26T05:24:39.403Z,11.53
2018-12-26T05:27:05.420Z,11.49
2018-12-26T05:29:31.787Z,11.43
2018-12-26T05:31:57.859Z,11.50
2018-12-26T05:34:24.229Z,11.44
2018-12-26T05:36:50.326Z,11.70
2018-12-26T05:39:16.405Z,11.35
2018-12-26T05:41:42.490Z,11.41
2018-12-26T05:44:08.525Z,11.38
2018-12-26T05:46:34.982Z,11.22
2018-12-26T05:49:01.022Z,11.55
2018-12-26T05:51:27.112Z,11.22
2018-12-26T05:53:53.131Z,11.08
2018-12-26T05:56:19.160Z,11.10
2018-12-26T05:58:45.205Z,11.22
2018-12-26T06:01:11.212Z,11.13
2018-12-26T06:03:37.321Z,11.10
2018-12-26T06:06:03.690Z,11.23
2018-12-26T06:08:30.219Z,11.27
2018-12-26T06:10:56.298Z,11.01
2018-12-26T06:13:22.351Z,11.23
2018-12-26T06:15:48.741Z,11.23
2018-12-26T06:18:14.844Z,11.29
2018-12-26T06:20:40.960Z,11.16
2018-12-26T06:23:07.249Z,11.28
2018-12-26T06:25:33.350Z,11.16
2018-12-26T06:27:59.745Z,11.21
2018-12-26T06:30:26.109Z,11.20
2018-12-26T06:32:52.205Z,11.20
2018-12-26T06:35:18.333Z,11.09
2018-12-26T06:37:44.353Z,11.06
2018-12-26T06:40:10.473Z,11.01
2018-12-26T06:42:36.512Z,10.94
2018-12-26T06:45:02.938Z,10.94
2018-12-26T06:47:28.961Z,10.93
2018-12-26T06:49:54.989Z,11.00
2018-12-26T06:52:21.084Z,11.07
2018-12-26T06:54:47.264Z,10.96
2018-12-26T06:57:13.361Z,11.00
2018-12-26T06:59:39.377Z,10.99
2018-12-26T07:02:05.486Z,11.10
2018-12-26T07:04:31.890Z,11.14
2018-12-26T07:06:58.270Z,11.21
2018-12-26T07:09:24.376Z,11.00
2018-12-26T07:11:50.462Z,11.01
2018-12-26T07:14:16.535Z,10.92
2018-12-26T07:16:42.889Z,10.89
2018-12-26T07:19:08.948Z,10.80
2018-12-26T07:21:35.268Z,10.83
2018-12-26T07:24:01.606Z,10.77
2018-12-26T07:26:28.105Z,10.84
2018-12-26T07:28:54.110Z,10.88
2018-12-26T07:31:20.129Z,10.93
2018-12-26T07:33:46.131Z,10.68
2018-12-26T07:36:12.183Z,10.81
2018-12-26T07:38:38.261Z,10.71
2018-12-26T07:41:04.341Z,10.84
2018-12-26T07:43:30.374Z,10.69
2018-12-26T07:45:56.459Z,10.81
2018-12-26T07:48:22.800Z,10.86
2018-12-26T07:50:48.816Z,10.89
2018-12-26T07:53:14.830Z,10.84
2018-12-26T07:55:40.860Z,10.63
2018-12-26T07:58:07.197Z,10.91
2018-12-26T08:00:33.229Z,10.71
2018-12-26T08:02:59.347Z,10.78
2018-12-26T08:05:25.638Z,11.19
2018-12-26T08:07:57.519Z,11.02
2018-12-26T08:10:25.137Z,10.85
2018-12-26T08:12:51.237Z,10.91
2018-12-26T08:15:17.331Z,10.66
2018-12-26T08:17:43.359Z,10.56
2018-12-26T08:20:09.684Z,10.52
2018-12-26T08:22:35.775Z,10.73
2018-12-26T08:25:04.636Z,10.49
2018-12-26T08:27:30.932Z,10.39
2018-12-26T08:29:57.037Z,10.39
2018-12-26T08:32:23.146Z,10.53
2018-12-26T08:34:49.514Z,10.77
2018-12-26T08:37:15.840Z,10.67
2018-12-26T08:39:42.227Z,10.79
2018-12-26T08:42:08.349Z,10.64
2018-12-26T08:44:34.438Z,10.46
2018-12-26T08:47:00.769Z,10.63
2018-12-26T08:49:27.103Z,10.63
2018-12-26T08:51:53.390Z,10.45
2018-12-26T08:54:19.861Z,10.48
2018-12-26T08:56:46.237Z,10.16
2018-12-26T08:59:12.522Z,10.34
2018-12-26T09:01:38.553Z,10.35
2018-12-26T09:04:04.906Z,10.65
2018-12-26T09:06:31.002Z,10.42
2018-12-26T09:08:57.032Z,10.30
2018-12-26T09:11:23.378Z,10.63
2018-12-26T09:13:53.687Z,10.54
2018-12-26T09:16:20.003Z,10.68
2018-12-26T09:18:46.052Z,10.84
2018-12-26T09:21:12.269Z,10.97
2018-12-26T09:23:42.938Z,10.72
2018-12-26T09:26:12.710Z,10.65
2018-12-26T09:28:43.745Z,10.75
2018-12-26T09:31:07.110Z,10.59
2018-12-26T09:33:33.210Z,10.76
2018-12-26T09:35:59.622Z,10.93
2018-12-26T09:38:25.813Z,10.71
2018-12-26T09:40:52.217Z,10.62
2018-12-26T09:43:18.341Z,10.67
2018-12-26T09:45:44.857Z,10.75
2018-12-26T09:48:10.972Z,10.69
2018-12-26T09:50:37.069Z,10.58
2018-12-26T09:53:03.429Z,10.69
2018-12-26T09:55:29.517Z,10.68
2018-12-26T09:57:55.611Z,10.78
2018-12-26T10:00:21.938Z,10.97
2018-12-26T10:02:48.042Z,10.80
2018-12-26T10:05:14.055Z,11.18
2018-12-26T10:07:40.166Z,11.04
2018-12-26T10:10:06.532Z,11.15
2018-12-26T10:12:32.847Z,11.16
2018-12-26T10:14:58.930Z,10.94
2018-12-26T10:17:25.023Z,10.90
2018-12-26T10:19:51.381Z,10.68
2018-12-26T10:22:17.748Z,10.65
2018-12-26T10:24:43.836Z,11.04
2018-12-26T10:27:10.187Z,11.05
2018-12-26T10:29:36.278Z,11.19
2018-12-26T10:32:03.156Z,10.92
2018-12-26T10:34:29.261Z,10.90
2018-12-26T10:36:55.565Z,10.90
2018-12-26T10:39:21.565Z,10.93
2018-12-26T10:41:47.674Z,10.88
2018-12-26T10:44:13.730Z,10.87
2018-12-26T10:46:40.302Z,10.75
2018-12-26T10:49:06.736Z,11.03
2018-12-26T10:51:32.890Z,10.61
2018-12-26T10:53:59.226Z,10.72
2018-12-26T10:56:25.628Z,10.90
2018-12-26T10:58:51.679Z,10.93
2018-12-26T11:01:17.784Z,11.01
2018-12-26T11:03:44.127Z,10.99
2018-12-26T11:06:10.199Z,10.78
2018-12-26T11:08:36.558Z,10.86
2018-12-26T11:11:02.607Z,10.74
2018-12-26T11:13:28.714Z,10.72
2018-12-26T11:15:55.045Z,10.82
2018-12-26T11:18:21.143Z,10.92
2018-12-26T11:20:47.169Z,11.00
2018-12-26T11:23:13.534Z,10.99
2018-12-26T11:25:39.692Z,11.02
2018-12-26T11:28:08.360Z,11.04
2018-12-26T11:30:34.480Z,11.00
2018-12-26T11:33:01.485Z,11.17
2018-12-26T11:35:27.713Z,10.94
2018-12-26T11:37:53.784Z,10.76
2018-12-26T11:40:19.858Z,10.95
2018-12-26T11:42:46.227Z,11.12
2018-12-26T11:45:12.274Z,10.97
2018-12-26T11:47:38.670Z,11.02
2018-12-26T11:50:05.615Z,11.35
2018-12-26T11:52:31.688Z,11.33
2018-12-26T11:54:57.986Z,11.35
2018-12-26T11:57:24.383Z,11.08
2018-12-26T11:59:50.482Z,11.15
2018-12-26T12:02:20.565Z,11.19
2018-12-26T12:04:44.293Z,11.27
2018-12-26T12:07:10.377Z,11.10
2018-12-26T12:09:36.711Z,11.03
2018-12-26T12:12:03.084Z,11.21
2018-12-26T12:14:29.254Z,11.24
2018-12-26T12:16:55.606Z,10.87
2018-12-26T12:19:21.719Z,11.07
2018-12-26T12:21:48.049Z,11.11
2018-12-26T12:24:14.125Z,11.08
2018-12-26T12:26:40.235Z,11.00
2018-12-26T12:29:06.325Z,11.04
2018-12-26T12:31:34.503Z,11.29
2018-12-26T12:34:00.676Z,11.08
2018-12-26T12:36:26.774Z,11.14
2018-12-26T12:38:52.870Z,10.92
2018-12-26T12:41:18.977Z,10.85
2018-12-26T12:43:45.081Z,10.93
2018-12-26T12:46:14.143Z,11.01
2018-12-26T12:48:40.526Z,11.10
2018-12-26T12:51:06.683Z,11.03
2018-12-26T12:53:33.360Z,11.09
2018-12-26T12:55:59.459Z,11.02
2018-12-26T12:58:25.638Z,11.11
2018-12-26T13:00:51.816Z,11.03
2018-12-26T13:03:18.236Z,11.12
2018-12-26T13:05:44.373Z,11.12
2018-12-26T13:08:10.749Z,11.22
2018-12-26T13:10:37.169Z,11.37
2018-12-26T13:13:03.391Z,11.22
2018-12-26T13:15:29.841Z,11.26
2018-12-26T13:17:55.918Z,10.81
2018-12-26T13:20:22.003Z,11.31
2018-12-26T13:22:48.083Z,11.42
2018-12-26T13:25:14.502Z,11.39
2018-12-26T13:27:40.602Z,11.27
2018-12-26T13:30:07.090Z,11.28
2018-12-26T13:32:33.166Z,11.04
2018-12-26T13:34:59.598Z,11.06
2018-12-26T13:37:25.756Z,11.34
2018-12-26T13:39:52.088Z,11.21
2018-12-26T13:42:18.500Z,11.08
2018-12-26T13:44:44.665Z,11.23
2018-12-26T13:47:10.757Z,11.54
2018-12-26T13:49:37.152Z,11.50
2018-12-26T13:52:03.517Z,11.47
2018-12-26T13:54:30.198Z,11.34
2018-12-26T13:56:56.590Z,11.23
2018-12-26T13:59:23.015Z,11.10
2018-12-26T14:01:49.358Z,11.10
2018-12-26T14:04:15.451Z,11.22
2018-12-26T14:06:41.553Z,11.15
2018-12-26T14:09:07.922Z,11.15
2018-12-26T14:11:34.236Z,11.32
2018-12-26T14:14:00.269Z,11.48
2018-12-26T14:16:26.367Z,11.29
2018-12-26T14:18:52.388Z,11.14
2018-12-26T14:21:18.680Z,11.08
2018-12-26T14:23:44.777Z,11.06
2018-12-26T14:26:11.322Z,11.07
2018-12-26T14:28:37.541Z,11.00
2018-12-26T14:31:03.861Z,10.97
2018-12-26T14:33:30.257Z,11.04
2018-12-26T14:35:56.337Z,11.17
2018-12-26T14:38:22.707Z,11.21
2018-12-26T14:40:49.025Z,11.19
2018-12-26T14:43:15.153Z,11.15
2018-12-26T14:45:41.542Z,11.16
2018-12-26T14:48:07.648Z,11.16
2018-12-26T14:50:34.018Z,11.15
2018-12-26T14:53:00.338Z,11.22
2018-12-26T14:55:26.726Z,11.41
2018-12-26T14:57:52.843Z,11.59
2018-12-26T15:00:20.048Z,11.45
2018-12-26T15:02:46.440Z,11.35
2018-12-26T15:05:12.522Z,11.37
2018-12-26T15:07:38.886Z,11.56
2018-12-26T15:10:07.279Z,11.41
2018-12-26T15:12:33.374Z,11.41
2018-12-26T15:14:59.750Z,11.32
2018-12-26T15:17:25.818Z,11.42
2018-12-26T15:19:51.922Z,11.40
2018-12-26T15:22:17.981Z,11.37
2018-12-26T15:24:44.364Z,11.29
2018-12-26T15:27:10.757Z,11.39
2018-12-26T15:29:36.868Z,11.51
2018-12-26T15:32:02.949Z,11.42
2018-12-26T15:34:29.041Z,11.41
2018-12-26T15:36:55.160Z,11.41
2018-12-26T15:39:21.242Z,11.32
2018-12-26T15:41:47.529Z,11.40
2018-12-26T15:44:13.639Z,11.31
2018-12-26T15:46:39.684Z,11.40
2018-12-26T15:49:05.761Z,11.51
2018-12-26T15:51:31.804Z,11.54
2018-12-26T15:53:58.164Z,11.69
2018-12-26T15:56:24.543Z,11.60
2018-12-26T15:58:50.918Z,11.66
2018-12-26T16:01:18.575Z,11.72
2018-12-26T16:03:44.661Z,11.90
2018-12-26T16:06:10.854Z,11.70
2018-12-26T16:08:37.295Z,11.69
2018-12-26T16:11:03.412Z,11.63
2018-12-26T16:13:29.705Z,11.94
2018-12-26T16:15:55.735Z,11.82
2018-12-26T16:18:22.097Z,11.77
2018-12-26T16:20:48.465Z,11.80
2018-12-26T16:23:14.594Z,11.77
2018-12-26T16:25:40.733Z,11.66
2018-12-26T16:28:06.818Z,11.72
2018-12-26T16:30:32.920Z,11.62
2018-12-26T16:32:59.336Z,11.84
2018-12-26T16:35:25.758Z,11.81
2018-12-26T16:37:51.850Z,11.73
2018-12-26T16:40:17.939Z,11.84
2018-12-26T16:42:44.269Z,11.83
2018-12-26T16:45:10.365Z,11.77
2018-12-26T16:47:36.790Z,11.87
2018-12-26T16:50:03.083Z,11.98
2018-12-26T16:52:29.474Z,12.01
2018-12-26T16:54:55.555Z,11.93
2018-12-26T16:57:22.035Z,11.92
2018-12-26T16:59:48.154Z,11.81
2018-12-26T17:02:14.181Z,11.78
2018-12-26T17:04:42.737Z,11.88
2018-12-26T17:07:07.977Z,12.15
2018-12-26T17:09:34.034Z,12.01
2018-12-26T17:12:00.146Z,11.82
2018-12-26T17:14:26.556Z,12.40
2018-12-26T17:16:52.886Z,12.07
2018-12-26T17:19:19.024Z,11.98
2018-12-26T17:21:45.097Z,11.94
2018-12-26T17:24:16.514Z,12.02
2018-12-26T17:26:38.957Z,12.43
2018-12-26T17:29:05.381Z,12.18
2018-12-26T17:31:31.454Z,11.98
2018-12-26T17:33:57.581Z,11.94
2018-12-26T17:36:25.786Z,11.97
2018-12-26T17:38:52.355Z,12.30
2018-12-26T17:41:18.502Z,12.38
2018-12-26T17:43:44.584Z,12.18
2018-12-26T17:46:10.591Z,11.86
2018-12-26T17:48:36.698Z,11.97
2018-12-26T17:51:04.398Z,12.09
2018-12-26T17:53:33.213Z,12.03
2018-12-26T17:56:02.780Z,12.07
2018-12-26T17:58:28.888Z,12.07
2018-12-26T18:00:55.245Z,12.18
2018-12-26T18:03:21.554Z,12.24
2018-12-26T18:05:49.057Z,12.02
2018-12-26T18:08:15.477Z,12.04
2018-12-26T18:10:41.898Z,12.02
2018-12-26T18:13:09.574Z,12.08
2018-12-26T18:15:35.654Z,12.26
2018-12-26T18:18:02.131Z,12.14
2018-12-26T18:20:28.695Z,12.07
2018-12-26T18:22:54.838Z,12.05
2018-12-26T18:25:23.552Z,12.04
2018-12-26T18:27:49.634Z,12.24
2018-12-26T18:30:15.638Z,12.33
2018-12-26T18:32:42.788Z,12.15
2018-12-26T18:35:09.150Z,12.07
2018-12-26T18:37:35.172Z,12.19
2018-12-26T18:40:01.503Z,12.28
2018-12-26T18:42:27.869Z,12.20
2018-12-26T18:44:53.901Z,12.19
2018-12-26T18:47:20.170Z,12.01
2018-12-26T18:49:46.458Z,12.24
2018-12-26T18:52:12.581Z,12.52
2018-12-26T18:54:38.662Z,12.21
2018-12-26T18:57:04.985Z,12.02
2018-12-26T18:59:31.115Z,12.17
2018-12-26T19:01:57.131Z,12.14
2018-12-26T19:04:23.648Z,12.26
2018-12-26T19:06:49.758Z,12.40
2018-12-26T19:09:26.631Z,12.41
2018-12-26T19:11:47.063Z,12.32
2018-12-26T19:14:14.899Z,12.35
2018-12-26T19:16:41.252Z,12.55
2018-12-26T19:19:07.356Z,12.32
2018-12-26T19:21:33.504Z,12.43
2018-12-26T19:23:59.908Z,12.64
2018-12-26T19:26:25.995Z,12.49
2018-12-26T19:28:52.369Z,12.26
2018-12-26T19:31:18.573Z,12.20
2018-12-26T19:33:44.590Z,12.07
2018-12-26T19:36:12.626Z,12.17
2018-12-26T19:38:38.422Z,12.21
2018-12-26T19:41:04.800Z,12.19
2018-12-26T19:43:30.824Z,12.15
2018-12-26T19:45:56.974Z,12.23
2018-12-26T19:48:23.041Z,12.18
2018-12-26T19:50:49.362Z,12.16
2018-12-26T19:53:15.407Z,12.21
2018-12-26T19:55:41.532Z,12.35
2018-12-26T19:58:07.562Z,12.11
2018-12-26T20:00:33.627Z,12.06
2018-12-26T20:02:59.684Z,11.99
2018-12-26T20:05:26.021Z,12.03
2018-12-26T20:07:52.095Z,12.01
2018-12-26T20:10:21.288Z,12.00
2018-12-26T20:12:47.654Z,12.09
2018-12-26T20:15:14.060Z,11.98
2018-12-26T20:17:40.103Z,12.24
2018-12-26T20:20:06.210Z,12.28
2018-12-26T20:22:33.318Z,12.28
2018-12-26T20:25:02.251Z,12.35
2018-12-26T20:27:28.293Z,12.15
2018-12-26T20:29:54.635Z,12.25
2018-12-26T20:32:20.719Z,12.12
2018-12-26T20:34:46.839Z,12.19
2018-12-26T20:37:13.438Z,12.22
2018-12-26T20:39:39.534Z,12.07
2018-12-26T20:42:09.519Z,12.24
2018-12-26T20:44:40.020Z,12.33
2018-12-26T20:47:06.224Z,12.12
2018-12-26T20:49:32.412Z,12.06
2018-12-26T20:51:58.516Z,12.21
2018-12-26T20:54:25.094Z,12.21
2018-12-26T20:56:51.528Z,12.28
2018-12-26T20:59:18.563Z,12.24
2018-12-26T21:01:45.160Z,11.98
2018-12-26T21:04:11.239Z,12.06
2018-12-26T21:06:39.745Z,12.04
2018-12-26T21:09:05.849Z,12.12
2018-12-26T21:11:31.971Z,12.09
2018-12-26T21:13:58.467Z,12.07
2018-12-26T21:16:24.561Z,12.37
2018-12-26T21:18:50.653Z,12.33
2018-12-26T21:21:16.801Z,12.33
2018-12-26T21:23:44.249Z,12.23
2018-12-26T21:26:13.971Z,12.18
2018-12-26T21:28:40.400Z,12.19
2018-12-26T21:31:06.501Z,12.26
2018-12-26T21:33:32.870Z,12.39
2018-12-26T21:35:59.275Z,12.42
2018-12-26T21:38:25.386Z,12.45
2018-12-26T21:40:51.763Z,12.44
2018-12-26T21:43:17.851Z,12.46
2018-12-26T21:45:43.990Z,12.33
2018-12-26T21:48:10.353Z,12.45
2018-12-26T21:50:36.820Z,12.57
2018-12-26T21:53:03.150Z,12.50
2018-12-26T21:55:29.817Z,12.64
2018-12-26T21:57:58.811Z,12.40
2018-12-26T22:00:25.180Z,12.37
2018-12-26T22:02:51.607Z,12.33
2018-12-26T22:05:17.669Z,12.33
2018-12-26T22:07:43.838Z,12.40
2018-12-26T22:10:17.947Z,12.39
2018-12-26T22:12:44.033Z,12.45
2018-12-26T22:15:11.012Z,12.30
2018-12-26T22:17:39.791Z,12.75
2018-12-26T22:20:05.855Z,12.63
2018-12-26T22:22:32.326Z,12.72
2018-12-26T22:24:58.436Z,12.59
2018-12-26T22:27:24.520Z,12.45
2018-12-26T22:29:51.001Z,12.43
2018-12-26T22:32:17.094Z,12.46
2018-12-26T22:34:43.508Z,12.41
2018-12-26T22:37:09.638Z,12.50
2018-12-26T22:39:35.665Z,12.92
2018-12-26T22:42:01.686Z,12.67
2018-12-26T22:44:28.084Z,12.57
2018-12-26T22:46:54.709Z,12.47
2018-12-26T22:49:21.175Z,12.51
2018-12-26T22:51:47.581Z,12.48
2018-12-26T22:54:13.667Z,12.64
2018-12-26T22:56:39.779Z,12.61
2018-12-26T22:59:05.853Z,12.55
2018-12-26T23:04:07.072Z,12.40
2018-12-26T23:06:39.410Z,12.55
2018-12-26T23:09:05.518Z,12.55
2018-12-26T23:11:31.613Z,12.63
2018-12-26T23:13:57.857Z,12.76
2018-12-26T23:19:07.702Z,12.39
2018-12-26T23:21:33.897Z,12.55
2018-12-26T23:23:59.997Z,12.50
2018-12-26T23:26:30.588Z,12.43
2018-12-26T23:29:03.034Z,12.49
2018-12-26T23:31:29.294Z,12.54
2018-12-26T23:33:55.681Z,12.72
2018-12-26T23:36:21.875Z,12.60
2018-12-26T23:38:47.979Z,12.60
2018-12-26T23:41:14.067Z,12.60
2018-12-26T23:43:40.074Z,12.48
2018-12-26T23:46:06.390Z,12.63
2018-12-26T23:48:32.421Z,12.75
2018-12-26T23:50:58.503Z,12.66
2018-12-26T23:53:24.554Z,12.49
2018-12-26T23:55:50.618Z,12.64
2018-12-26T23:58:16.752Z,12.68
